createdAt,value
2023-05-13T00:00:43.052Z,12.75
2023-05-13T00:03:12.476Z,12.28
2023-05-13T00:05:42.112Z,12.03
2023-05-13T00:08:12.416Z,12.80
2023-05-13T00:10:41.825Z,11.57
2023-05-13T00:13:11.203Z,12.15
2023-05-13T00:15:40.880Z,11.90
2023-05-13T00:18:10.171Z,12.15
2023-05-13T00:20:39.468Z,11.78
2023-05-13T00:23:09.289Z,10.98
2023-05-13T00:25:38.979Z,11.85
2023-05-13T00:28:08.752Z,10.72
2023-05-13T00:30:38.536Z,11.03
2023-05-13T00:33:07.954Z,11.15
2023-05-13T00:35:37.412Z,11.10
2023-05-13T00:38:07.053Z,11.40
2023-05-13T00:40:39.671Z,10.93
2023-05-13T00:45:40.548Z,10.65
2023-05-13T00:48:10.282Z,10.18
2023-05-13T00:50:42.223Z,10.32
2023-05-13T00:53:12.980Z,10.70
2023-05-13T00:55:46.666Z,10.00
2023-05-13T00:58:17.624Z,10.40
2023-05-13T01:01:06.646Z,11.48
2023-05-13T01:03:53.991Z,9.53
2023-05-13T01:06:26.446Z,10.55
2023-05-13T01:09:04.567Z,9.63
2023-05-13T01:11:37.708Z,10.13
2023-05-13T01:14:16.280Z,9.90
2023-05-13T01:16:48.943Z,9.43
2023-05-13T01:19:49.153Z,9.40
2023-05-13T01:22:18.593Z,9.40
2023-05-13T01:24:47.880Z,9.03
2023-05-13T01:27:17.712Z,9.40
2023-05-13T01:29:49.065Z,8.75
2023-05-13T01:32:20.429Z,9.23
2023-05-13T01:34:52.318Z,8.80
2023-05-13T01:37:23.252Z,8.48
2023-05-13T01:39:53.700Z,8.80
2023-05-13T01:42:25.023Z,8.90
2023-05-13T01:44:55.447Z,8.75
2023-05-13T01:47:25.029Z,8.75
2023-05-13T01:49:54.336Z,8.73
2023-05-13T01:52:23.700Z,8.60
2023-05-13T01:54:52.999Z,8.65
2023-05-13T01:57:22.554Z,9.08
2023-05-13T01:59:53.078Z,8.85
2023-05-13T02:02:22.750Z,8.98
2023-05-13T02:04:52.218Z,9.03
2023-05-13T02:07:21.617Z,8.85
2023-05-13T02:09:50.884Z,9.00
2023-05-13T02:12:20.368Z,8.83
2023-05-13T02:14:49.698Z,8.45
2023-05-13T02:17:19.014Z,8.58
2023-05-13T02:19:48.684Z,8.45
2023-05-13T02:22:18.025Z,7.72
2023-05-13T02:24:47.287Z,7.97
2023-05-13T02:27:16.895Z,7.70
2023-05-13T02:29:46.166Z,7.62
2023-05-13T02:32:15.609Z,7.65
2023-05-13T02:34:44.841Z,6.67
2023-05-13T02:37:14.262Z,7.00
2023-05-13T02:39:45.401Z,6.53
2023-05-13T02:42:15.123Z,7.08
2023-05-13T02:44:44.395Z,7.05
2023-05-13T02:47:14.455Z,7.30
2023-05-13T02:49:43.777Z,7.53
2023-05-13T02:52:13.191Z,8.13
2023-05-13T02:54:42.748Z,7.22
2023-05-13T02:57:12.107Z,8.28
2023-05-13T02:59:43.004Z,7.85
2023-05-13T03:02:12.767Z,8.18
2023-05-13T03:04:42.527Z,8.25
2023-05-13T03:07:11.900Z,8.15
2023-05-13T03:09:42.395Z,7.53
2023-05-13T03:12:11.704Z,8.23
2023-05-13T03:14:43.033Z,8.00
2023-05-13T03:17:12.767Z,8.15
2023-05-13T03:19:42.162Z,8.45
2023-05-13T03:22:11.436Z,8.90
2023-05-13T03:24:41.724Z,8.53
2023-05-13T03:27:11.356Z,9.03
2023-05-13T03:29:41.092Z,9.00
2023-05-13T03:32:10.669Z,8.43
2023-05-13T03:34:40.605Z,8.83
2023-05-13T03:37:10.413Z,9.05
2023-05-13T03:39:39.716Z,8.93
2023-05-13T03:42:09.292Z,10.10
2023-05-13T03:44:38.839Z,9.28
2023-05-13T03:47:08.429Z,9.33
2023-05-13T03:49:37.931Z,10.00
2023-05-13T03:52:10.189Z,10.68
2023-05-13T03:54:39.642Z,10.95
2023-05-13T03:57:09.365Z,10.82
2023-05-13T03:59:39.033Z,11.33
2023-05-13T04:02:08.565Z,10.98
2023-05-13T04:04:38.021Z,11.10
2023-05-13T04:07:07.331Z,11.28
2023-05-13T04:09:36.675Z,11.73
2023-05-13T04:12:06.471Z,11.70
2023-05-13T04:14:36.076Z,11.95
2023-05-13T04:17:05.899Z,11.88
2023-05-13T04:19:35.797Z,11.95
2023-05-13T04:22:05.429Z,11.93
2023-05-13T04:24:35.050Z,12.23
2023-05-13T04:27:04.914Z,11.88
2023-05-13T04:29:34.449Z,12.20
2023-05-13T04:32:04.123Z,11.97
2023-05-13T04:34:33.555Z,11.78
2023-05-13T04:37:02.889Z,11.95
2023-05-13T04:39:32.460Z,12.60
2023-05-13T04:42:02.301Z,12.25
2023-05-13T04:44:35.100Z,11.75
2023-05-13T04:47:04.397Z,11.45
2023-05-13T04:49:35.275Z,11.60
2023-05-13T04:52:07.519Z,11.88
2023-05-13T04:54:39.012Z,12.05
2023-05-13T04:57:08.627Z,11.65
2023-05-13T04:59:38.421Z,12.05
2023-05-13T05:02:09.367Z,11.43
2023-05-13T05:04:38.891Z,11.90
2023-05-13T05:07:09.866Z,11.80
2023-05-13T05:09:39.674Z,11.68
2023-05-13T05:12:09.691Z,12.20
2023-05-13T05:14:40.890Z,12.68
2023-05-13T05:17:10.318Z,11.50
2023-05-13T05:19:40.433Z,11.55
2023-05-13T05:22:10.454Z,12.20
2023-05-13T05:24:40.038Z,11.78
2023-05-13T05:27:11.002Z,11.10
2023-05-13T05:29:40.372Z,11.95
2023-05-13T05:32:09.927Z,11.88
2023-05-13T05:34:40.150Z,12.50
2023-05-13T05:37:11.064Z,12.53
2023-05-13T05:39:41.278Z,11.63
2023-05-13T05:42:10.603Z,12.23
2023-05-13T05:44:39.912Z,11.97
2023-05-13T05:47:09.406Z,11.53
2023-05-13T05:49:39.281Z,11.18
2023-05-13T05:52:10.859Z,12.20
2023-05-13T05:54:40.813Z,12.10
2023-05-13T05:57:10.119Z,12.07
2023-05-13T05:59:39.852Z,11.73
2023-05-13T06:02:09.370Z,11.43
2023-05-13T06:04:38.806Z,11.93
2023-05-13T06:07:10.312Z,11.48
2023-05-13T06:09:39.910Z,11.60
2023-05-13T06:12:09.586Z,11.25
2023-05-13T06:14:38.876Z,11.68
2023-05-13T06:17:08.201Z,11.45
2023-05-13T06:19:37.668Z,11.38
2023-05-13T06:22:06.995Z,11.83
2023-05-13T06:24:38.788Z,10.90
2023-05-13T06:27:08.785Z,11.12
2023-05-13T06:29:38.682Z,10.48
2023-05-13T06:32:09.081Z,9.85
2023-05-13T06:34:40.098Z,10.85
2023-05-13T06:37:10.424Z,10.28
2023-05-13T06:39:40.036Z,11.10
2023-05-13T06:42:11.957Z,10.72
2023-05-13T06:44:42.824Z,11.48
2023-05-13T06:47:13.978Z,10.55
2023-05-13T06:49:44.575Z,10.13
2023-05-13T06:52:14.376Z,11.85
2023-05-13T06:54:43.643Z,9.98
2023-05-13T06:57:13.079Z,10.80
2023-05-13T06:59:42.364Z,10.50
2023-05-13T07:02:11.935Z,10.68
2023-05-13T07:04:41.197Z,10.30
2023-05-13T07:07:11.089Z,10.95
2023-05-13T07:09:40.364Z,10.72
2023-05-13T07:12:11.397Z,10.50
2023-05-13T07:14:40.706Z,10.75
2023-05-13T07:17:10.321Z,10.48
2023-05-13T07:19:39.615Z,11.08
2023-05-13T07:22:09.554Z,11.25
2023-05-13T07:24:38.838Z,10.82
2023-05-13T07:27:08.132Z,10.25
2023-05-13T07:29:37.437Z,10.03
2023-05-13T07:32:07.692Z,10.25
2023-05-13T07:34:37.461Z,9.53
2023-05-13T07:37:07.500Z,9.60
2023-05-13T07:39:36.849Z,9.10
2023-05-13T07:42:06.478Z,9.33
2023-05-13T07:44:36.052Z,9.60
2023-05-13T07:47:05.850Z,9.40
2023-05-13T07:49:35.534Z,8.75
2023-05-13T07:52:04.967Z,9.23
2023-05-13T07:54:34.496Z,9.20
2023-05-13T07:57:04.101Z,9.05
2023-05-13T07:59:33.401Z,8.43
2023-05-13T08:02:02.863Z,9.08
2023-05-13T08:04:32.497Z,8.78
2023-05-13T08:07:05.207Z,8.78
2023-05-13T08:09:34.498Z,8.33
2023-05-13T08:12:04.026Z,8.58
2023-05-13T08:14:33.317Z,8.55
2023-05-13T08:17:03.107Z,8.48
2023-05-13T08:19:32.452Z,8.88
2023-05-13T08:22:02.191Z,8.60
2023-05-13T08:24:31.577Z,9.13
2023-05-13T08:27:01.327Z,8.63
2023-05-13T08:29:30.796Z,8.28
2023-05-13T08:32:00.311Z,9.10
2023-05-13T08:34:29.765Z,8.35
2023-05-13T08:36:59.438Z,8.13
2023-05-13T08:39:29.390Z,8.25
2023-05-13T08:42:00.192Z,8.13
2023-05-13T08:44:30.841Z,7.90
2023-05-13T08:47:15.812Z,8.98
2023-05-13T08:49:46.708Z,7.95
2023-05-13T08:52:16.450Z,7.70
2023-05-13T08:54:47.411Z,8.10
2023-05-13T08:57:17.130Z,8.30
2023-05-13T08:59:47.057Z,7.78
2023-05-13T09:02:16.396Z,8.40
2023-05-13T09:04:47.529Z,8.20
2023-05-13T09:07:17.219Z,7.28
2023-05-13T09:09:46.928Z,8.30
2023-05-13T09:12:35.611Z,7.87
2023-05-13T09:15:10.074Z,7.78
2023-05-13T09:17:42.977Z,7.78
2023-05-13T09:20:15.217Z,7.60
2023-05-13T09:22:49.494Z,8.05
2023-05-13T09:25:20.416Z,7.22
2023-05-13T09:27:56.274Z,6.80
2023-05-13T09:30:27.043Z,7.55
2023-05-13T09:33:09.120Z,6.85
2023-05-13T09:35:40.666Z,7.58
2023-05-13T09:38:20.304Z,6.15
2023-05-13T09:40:54.135Z,6.85
2023-05-13T09:43:28.287Z,7.75
2023-05-13T09:46:00.552Z,6.40
2023-05-13T09:48:32.822Z,6.50
2023-05-13T09:51:02.555Z,6.42
2023-05-13T09:53:32.974Z,5.90
2023-05-13T09:56:02.706Z,5.80
2023-05-13T09:58:32.084Z,5.83
2023-05-13T10:01:02.011Z,5.42
2023-05-13T10:03:31.966Z,5.58
2023-05-13T10:06:03.612Z,5.10
2023-05-13T10:08:33.130Z,5.50
2023-05-13T10:11:03.137Z,5.10
2023-05-13T10:13:33.330Z,4.45
2023-05-13T10:16:03.423Z,4.15
2023-05-13T10:18:33.360Z,4.17
2023-05-13T10:21:04.417Z,4.47
2023-05-13T10:23:34.737Z,5.30
2023-05-13T10:26:04.619Z,5.28
2023-05-13T10:28:35.245Z,4.67
2023-05-13T10:31:04.557Z,4.62
2023-05-13T10:33:34.261Z,5.03
2023-05-13T10:36:25.386Z,5.15
2023-05-13T10:39:18.146Z,5.95
2023-05-13T10:41:59.079Z,5.15
2023-05-13T10:44:29.331Z,5.62
2023-05-13T10:46:59.048Z,6.17
2023-05-13T10:49:36.302Z,5.17
2023-05-13T10:52:07.222Z,5.15
2023-05-13T10:54:42.173Z,6.15
2023-05-13T10:57:11.546Z,5.80
2023-05-13T11:00:00.986Z,6.00
2023-05-13T11:02:32.695Z,5.97
2023-05-13T11:07:31.086Z,5.12
2023-05-13T11:10:01.373Z,5.87
2023-05-13T11:12:30.633Z,5.47
2023-05-13T11:15:00.023Z,6.10
2023-05-13T11:17:30.888Z,5.97
2023-05-13T11:20:00.788Z,6.40
2023-05-13T11:22:31.951Z,5.72
2023-05-13T11:25:11.474Z,6.22
2023-05-13T11:27:42.192Z,6.17
2023-05-13T11:30:26.349Z,6.47
2023-05-13T11:32:59.738Z,6.30
2023-05-13T11:35:31.792Z,6.50
2023-05-13T11:38:03.776Z,6.97
2023-05-13T11:40:38.423Z,6.50
2023-05-13T11:43:07.759Z,6.50
2023-05-13T11:45:41.103Z,6.37
2023-05-13T11:48:21.334Z,6.28
2023-05-13T11:50:53.454Z,6.22
2023-05-13T11:53:23.698Z,6.05
2023-05-13T11:55:53.103Z,5.90
2023-05-13T11:58:22.465Z,6.42
2023-05-13T12:00:53.252Z,5.80
2023-05-13T12:03:22.584Z,6.15
2023-05-13T12:05:52.038Z,5.40
2023-05-13T12:08:23.922Z,5.85
2023-05-13T12:13:23.382Z,5.67
2023-05-13T12:15:53.794Z,6.08
2023-05-13T12:18:23.222Z,6.12
2023-05-13T12:20:52.687Z,5.70
2023-05-13T12:23:21.977Z,6.50
2023-05-13T12:25:51.795Z,6.37
2023-05-13T12:28:28.022Z,6.33
2023-05-13T12:31:03.025Z,6.20
2023-05-13T12:33:47.336Z,6.28
2023-05-13T12:36:23.621Z,6.10
2023-05-13T12:39:00.065Z,6.60
2023-05-13T12:41:37.516Z,7.08
2023-05-13T12:44:12.152Z,6.60
2023-05-13T12:46:53.705Z,6.25
2023-05-13T12:49:23.191Z,6.03
2023-05-13T12:51:52.895Z,6.42
2023-05-13T12:54:25.469Z,6.10
2023-05-13T12:56:55.712Z,5.65
2023-05-13T12:59:26.620Z,5.47
2023-05-13T13:01:55.891Z,6.00
2023-05-13T13:04:25.252Z,5.33
2023-05-13T13:06:54.591Z,6.53
2023-05-13T13:09:23.953Z,6.53
2023-05-13T13:11:53.244Z,6.08
2023-05-13T13:14:23.964Z,6.15
2023-05-13T13:16:53.365Z,5.65
2023-05-13T13:19:23.095Z,5.95
2023-05-13T13:21:52.713Z,5.72
2023-05-13T13:24:22.008Z,5.42
2023-05-13T13:26:53.004Z,5.70
2023-05-13T13:29:22.577Z,5.70
2023-05-13T13:31:52.668Z,5.87
2023-05-13T13:34:22.237Z,5.75
2023-05-13T13:36:51.624Z,5.85
2023-05-13T13:39:21.484Z,5.95
2023-05-13T13:41:50.776Z,5.83
2023-05-13T13:44:20.128Z,5.83
2023-05-13T13:46:49.696Z,5.60
2023-05-13T13:49:23.707Z,5.28
2023-05-13T13:51:51.258Z,5.75
2023-05-13T13:54:20.984Z,5.80
2023-05-13T13:56:50.611Z,5.85
2023-05-13T13:59:20.293Z,5.87
2023-05-13T14:01:49.663Z,5.80
2023-05-13T14:04:27.248Z,5.85
2023-05-13T14:06:56.690Z,5.60
2023-05-13T14:09:26.278Z,5.67
2023-05-13T14:11:55.605Z,5.87
2023-05-13T14:14:28.108Z,5.33
2023-05-13T14:16:57.471Z,5.15
2023-05-13T14:19:26.955Z,5.70
2023-05-13T14:21:56.568Z,6.00
2023-05-13T14:24:28.017Z,5.97
2023-05-13T14:26:57.951Z,6.80
2023-05-13T14:29:28.075Z,5.97
2023-05-13T14:31:58.176Z,6.00
2023-05-13T14:34:27.578Z,5.25
2023-05-13T14:36:56.973Z,4.42
2023-05-13T14:39:26.313Z,4.00
2023-05-13T14:41:55.920Z,4.08
2023-05-13T14:44:25.243Z,3.62
2023-05-13T14:46:54.807Z,3.62
2023-05-13T14:49:24.099Z,4.67
2023-05-13T14:51:53.933Z,4.50
2023-05-13T14:54:23.181Z,5.15
2023-05-13T14:56:53.112Z,5.60
2023-05-13T14:59:22.689Z,5.30
2023-05-13T15:01:52.401Z,4.95
2023-05-13T15:04:21.743Z,4.62
2023-05-13T15:06:51.198Z,4.55
2023-05-13T15:09:21.219Z,4.97
2023-05-13T15:11:50.505Z,4.50
2023-05-13T15:14:21.655Z,4.72
2023-05-13T15:16:50.978Z,4.72
2023-05-13T15:19:20.492Z,4.20
2023-05-13T15:21:49.864Z,3.80
2023-05-13T15:24:19.634Z,3.50
2023-05-13T15:26:50.760Z,3.62
2023-05-13T15:29:20.361Z,3.42
2023-05-13T15:31:52.822Z,3.40
2023-05-13T15:34:22.575Z,4.05
2023-05-13T15:36:51.932Z,3.52
2023-05-13T15:39:21.680Z,3.47
2023-05-13T15:41:50.995Z,3.98
2023-05-13T15:44:22.239Z,3.42
2023-05-13T15:46:52.052Z,3.37
2023-05-13T15:49:22.306Z,3.40
2023-05-13T15:51:53.834Z,3.77
2023-05-13T15:54:23.115Z,4.30
2023-05-13T15:56:54.231Z,4.85
2023-05-13T15:59:24.483Z,4.58
2023-05-13T16:01:53.847Z,4.90
2023-05-13T16:04:23.675Z,4.67
2023-05-13T16:06:53.397Z,5.12
2023-05-13T16:09:22.683Z,5.20
2023-05-13T16:11:52.142Z,4.83
2023-05-13T16:14:21.466Z,4.45
2023-05-13T16:16:50.799Z,4.65
2023-05-13T16:19:20.251Z,4.62
2023-05-13T16:21:49.529Z,4.55
2023-05-13T16:24:18.906Z,5.00
2023-05-13T16:26:48.835Z,4.67
2023-05-13T16:29:18.871Z,4.80
2023-05-13T16:31:48.284Z,5.03
2023-05-13T16:34:17.774Z,4.40
2023-05-13T16:36:47.128Z,5.10
2023-05-13T16:39:16.947Z,3.98
2023-05-13T16:41:46.370Z,4.12
2023-05-13T16:44:16.268Z,3.90
2023-05-13T16:46:45.800Z,3.83
2023-05-13T16:49:15.666Z,4.55
2023-05-13T16:51:45.259Z,4.08
2023-05-13T16:54:15.099Z,4.58
2023-05-13T16:56:46.397Z,3.95
2023-05-13T16:59:24.527Z,4.15
2023-05-13T17:01:54.116Z,4.28
2023-05-13T17:04:23.935Z,4.20
2023-05-13T17:06:53.757Z,4.42
2023-05-13T17:09:23.264Z,4.25
2023-05-13T17:11:52.563Z,4.08
2023-05-13T17:14:22.118Z,4.00
2023-05-13T17:16:51.500Z,5.03
2023-05-13T17:19:20.972Z,4.10
2023-05-13T17:21:50.680Z,4.10
2023-05-13T17:24:21.925Z,4.40
2023-05-13T17:26:51.730Z,4.67
2023-05-13T17:29:21.144Z,4.58
2023-05-13T17:31:52.287Z,4.28
2023-05-13T17:34:21.805Z,4.60
2023-05-13T17:36:51.363Z,4.30
2023-05-13T17:39:20.895Z,4.65
2023-05-13T17:41:50.636Z,4.40
2023-05-13T17:44:20.317Z,4.72
2023-05-13T17:46:49.820Z,4.65
2023-05-13T17:49:19.215Z,4.70
2023-05-13T17:51:48.555Z,4.95
2023-05-13T17:54:17.930Z,4.30
2023-05-13T17:56:47.224Z,4.80
2023-05-13T17:59:16.870Z,4.92
2023-05-13T18:01:46.196Z,5.05
2023-05-13T18:04:16.274Z,5.00
2023-05-13T18:06:45.910Z,5.05
2023-05-13T18:09:15.220Z,4.95
2023-05-13T18:11:44.797Z,4.62
2023-05-13T18:14:14.344Z,4.60
2023-05-13T18:16:43.782Z,4.80
2023-05-13T18:19:13.247Z,4.60
2023-05-13T18:21:42.567Z,5.00
2023-05-13T18:24:12.113Z,5.00
2023-05-13T18:26:41.418Z,4.55
2023-05-13T18:29:11.062Z,5.12
2023-05-13T18:31:40.487Z,5.40
2023-05-13T18:34:09.895Z,5.08
2023-05-13T18:36:39.192Z,5.22
2023-05-13T18:39:10.025Z,10.88
2023-05-13T18:41:39.560Z,5.17
2023-05-13T18:44:09.238Z,5.22
2023-05-13T18:46:38.677Z,5.78
2023-05-13T18:49:08.247Z,5.15
2023-05-13T18:51:37.987Z,6.00
2023-05-13T18:54:07.647Z,6.15
2023-05-13T18:56:37.165Z,6.25
2023-05-13T18:59:06.516Z,6.30
2023-05-13T19:01:36.137Z,6.33
2023-05-13T19:04:05.522Z,6.78
2023-05-13T19:06:38.059Z,6.78
2023-05-13T19:09:07.478Z,6.83
2023-05-13T19:11:36.947Z,6.87
2023-05-13T19:14:06.301Z,7.00
2023-05-13T19:16:35.852Z,7.58
2023-05-13T19:19:05.413Z,7.35
2023-05-13T19:21:34.762Z,6.78
2023-05-13T19:24:04.173Z,7.08
2023-05-13T19:26:33.605Z,7.72
2023-05-13T19:29:02.967Z,7.87
2023-05-13T19:31:32.622Z,8.00
2023-05-13T19:34:02.136Z,8.45
2023-05-13T19:36:31.968Z,8.00
2023-05-13T19:39:01.462Z,8.78
2023-05-13T19:41:30.940Z,8.58
2023-05-13T19:44:01.428Z,9.45
2023-05-13T19:46:31.546Z,9.45
2023-05-13T19:49:01.271Z,9.60
2023-05-13T19:51:31.117Z,9.83
2023-05-13T19:54:00.506Z,9.90
2023-05-13T19:56:30.544Z,9.63
2023-05-13T19:58:59.846Z,9.25
2023-05-13T20:01:30.863Z,9.43
2023-05-13T20:04:00.832Z,10.65
2023-05-13T20:06:30.268Z,10.48
2023-05-13T20:09:01.490Z,10.60
2023-05-13T20:11:31.323Z,10.28
2023-05-13T20:14:00.847Z,10.93
2023-05-13T20:16:31.204Z,10.85
2023-05-13T20:19:01.062Z,11.00
2023-05-13T20:21:31.302Z,11.60
2023-05-13T20:24:00.987Z,10.85
2023-05-13T20:26:32.473Z,11.05
2023-05-13T20:29:02.614Z,11.18
2023-05-13T20:31:32.138Z,10.80
2023-05-13T20:34:03.387Z,11.43
2023-05-13T20:36:33.077Z,12.10
2023-05-13T20:39:02.496Z,11.80
2023-05-13T20:41:32.931Z,11.40
2023-05-13T20:44:02.405Z,12.45
2023-05-13T20:46:31.788Z,11.73
2023-05-13T20:49:01.272Z,12.28
2023-05-13T20:51:30.779Z,13.50
2023-05-13T20:54:00.618Z,12.30
2023-05-13T20:56:30.081Z,12.88
2023-05-13T20:59:00.133Z,13.45
2023-05-13T21:01:33.344Z,13.20
2023-05-13T21:04:06.605Z,13.38
2023-05-13T21:06:36.369Z,14.07
2023-05-13T21:09:06.109Z,13.35
2023-05-13T21:11:37.229Z,14.58
2023-05-13T21:14:06.572Z,14.50
2023-05-13T21:16:36.163Z,13.98
2023-05-13T21:19:11.396Z,14.95
2023-05-13T21:21:40.922Z,15.38
2023-05-13T21:24:10.729Z,14.58
2023-05-13T21:26:40.290Z,15.20
2023-05-13T21:29:09.678Z,15.63
2023-05-13T21:31:39.239Z,16.07
2023-05-13T21:34:08.783Z,15.28
2023-05-13T21:36:39.050Z,16.52
2023-05-13T21:39:10.487Z,15.98
2023-05-13T21:41:40.100Z,16.82
2023-05-13T21:44:09.735Z,16.50
2023-05-13T21:46:39.113Z,16.60
2023-05-13T21:49:08.571Z,17.23
2023-05-13T21:51:38.146Z,16.65
2023-05-13T21:54:07.541Z,17.48
2023-05-13T21:56:36.823Z,17.02
2023-05-13T21:59:06.485Z,17.00
2023-05-13T22:01:35.770Z,17.15
2023-05-13T22:04:05.315Z,17.20
2023-05-13T22:06:34.584Z,16.73
2023-05-13T22:09:04.437Z,17.65
2023-05-13T22:11:33.720Z,17.73
2023-05-13T22:14:03.563Z,17.12
2023-05-13T22:16:32.906Z,17.30
2023-05-13T22:19:04.051Z,18.37
2023-05-13T22:21:33.465Z,18.00
2023-05-13T22:24:04.490Z,17.12
2023-05-13T22:26:34.917Z,17.35
2023-05-13T22:29:04.733Z,17.17
2023-05-13T22:31:34.088Z,17.87
2023-05-13T22:34:03.489Z,17.62
2023-05-13T22:36:32.832Z,18.30
2023-05-13T22:39:02.465Z,17.00
2023-05-13T22:41:31.761Z,17.10
2023-05-13T22:44:01.079Z,16.65
2023-05-13T22:46:30.777Z,17.62
2023-05-13T22:49:00.140Z,17.77
2023-05-13T22:51:29.520Z,18.35
2023-05-13T22:53:58.792Z,18.45
2023-05-13T22:56:28.242Z,17.40
2023-05-13T22:58:58.088Z,18.30
2023-05-13T23:01:27.710Z,17.90
2023-05-13T23:03:57.120Z,18.62
2023-05-13T23:06:27.782Z,19.00
2023-05-13T23:08:57.857Z,18.70
2023-05-13T23:11:27.189Z,18.60
2023-05-13T23:13:56.467Z,18.82
2023-05-13T23:16:26.661Z,17.73
2023-05-13T23:18:56.332Z,17.60
2023-05-13T23:21:26.189Z,17.92
2023-05-13T23:23:55.630Z,18.42
2023-05-13T23:26:24.945Z,18.05
2023-05-13T23:28:54.238Z,19.10
2023-05-13T23:31:23.583Z,19.85
2023-05-13T23:33:53.007Z,19.12
2023-05-13T23:36:22.302Z,19.42
2023-05-13T23:38:51.681Z,19.12
2023-05-13T23:41:21.854Z,19.82
2023-05-13T23:43:51.230Z,19.25
2023-05-13T23:46:21.158Z,19.92
2023-05-13T23:48:50.756Z,18.95
2023-05-13T23:51:20.779Z,19.02
2023-05-13T23:53:50.148Z,20.27
2023-05-13T23:56:19.490Z,19.50
2023-05-13T23:58:48.786Z,19.70
